Time;durP1;ratioP1;P1;durP2;ratioP2;P2;SDS_P1;SDS_P2;PMS_P1;PMS_P2;Temp;Humidity;BMP_temperature;BMP_pressure;BME280_temperature;BME280_humidity;BME280_pressure;Samples;Min_cycle;Max_cycle;Signal;HPM_P1;HPM_P2
2022/05/31 00:00:18;;;;;;;9.30;8.30;;;13.80;97.60;;;;;;5049638;28;20432;-69
2022/05/31 00:02:44;;;;;;;11.03;8.83;;;13.90;97.60;;;;;;5051350;28;20510;-69
2022/05/31 00:05:11;;;;;;;9.30;8.47;;;13.80;97.50;;;;;;5050563;28;20426;-69
2022/05/31 00:07:39;;;;;;;10.23;9.27;;;13.80;97.50;;;;;;5032253;28;20506;-69
2022/05/31 00:10:05;;;;;;;10.63;9.63;;;13.80;97.50;;;;;;5049999;28;20431;-75
2022/05/31 00:12:32;;;;;;;11.40;9.57;;;13.80;97.50;;;;;;5050641;28;20915;-69
2022/05/31 00:14:59;;;;;;;11.17;10.20;;;13.80;97.50;;;;;;5050178;28;20435;-69
2022/05/31 00:17:25;;;;;;;9.80;9.10;;;13.80;97.40;;;;;;5050279;28;20428;-69
2022/05/31 00:19:51;;;;;;;11.50;9.63;;;13.80;97.20;;;;;;5049955;28;20510;-69
2022/05/31 00:22:20;;;;;;;10.87;9.73;;;13.80;97.30;;;;;;5011633;28;1101499;-69
2022/05/31 00:24:46;;;;;;;10.50;9.57;;;13.70;97.30;;;;;;5050801;28;20219;-69
2022/05/31 00:27:14;;;;;;;10.07;9.27;;;13.70;97.40;;;;;;5049922;28;20455;-69
2022/05/31 00:29:39;;;;;;;8.93;8.13;;;13.70;97.40;;;;;;5050728;28;20265;-69
2022/05/31 00:32:08;;;;;;;9.77;8.83;;;13.70;97.10;;;;;;5050572;28;20411;-75
2022/05/31 00:34:37;;;;;;;9.97;9.17;;;13.60;97.20;;;;;;5050796;28;20169;-69
2022/05/31 00:37:04;;;;;;;9.90;9.00;;;13.60;97.30;;;;;;5031713;28;20420;-69
2022/05/31 00:39:30;;;;;;;9.10;8.30;;;13.60;97.30;;;;;;5030932;28;20469;-69
2022/05/31 00:42:08;;;;;;;9.33;8.43;;;13.60;97.10;;;;;;5035932;28;20781;-69
2022/05/31 00:44:35;;;;;;;9.83;8.70;;;13.40;97.30;;;;;;5051229;28;20870;-70
2022/05/31 00:47:18;;;;;;;9.00;8.23;;;13.30;97.60;;;;;;5051318;28;20418;-69
2022/05/31 00:50:01;;;;;;;8.80;8.00;;;13.30;98.00;;;;;;5052042;28;20457;-69
2022/05/31 00:52:35;;;;;;;9.33;8.43;;;13.40;98.10;;;;;;5050510;28;20453;-69
2022/05/31 00:55:10;;;;;;;9.00;8.30;;;13.40;98.10;;;;;;5051455;28;20386;-69
2022/05/31 00:57:39;;;;;;;11.93;8.17;;;13.40;98.30;;;;;;5051468;28;20452;-69
2022/05/31 01:00:12;;;;;;;9.10;8.20;;;13.50;98.20;;;;;;5049287;28;20434;-69
2022/05/31 01:02:40;;;;;;;9.10;8.30;;;13.50;98.30;;;;;;5051739;28;20765;-69
2022/05/31 01:05:07;;;;;;;9.67;8.77;;;13.50;98.30;;;;;;5051315;28;20795;-69
2022/05/31 01:07:33;;;;;;;12.10;9.67;;;13.50;98.30;;;;;;5051062;28;20411;-69
2022/05/31 01:09:59;;;;;;;10.13;9.20;;;13.50;98.40;;;;;;5052036;28;20416;-69
2022/05/31 01:12:26;;;;;;;9.13;8.40;;;13.50;98.50;;;;;;5049769;28;20187;-69
2022/05/31 01:14:52;;;;;;;10.07;9.07;;;13.50;98.60;;;;;;5050696;28;20479;-69
2022/05/31 01:17:23;;;;;;;9.53;8.73;;;13.60;99.50;;;;;;5049664;28;20429;-69
2022/05/31 01:19:57;;;;;;;9.97;9.10;;;13.60;98.90;;;;;;5053666;28;20437;-69
2022/05/31 01:22:40;;;;;;;8.67;7.90;;;13.60;99.20;;;;;;5054466;28;20535;-69
2022/05/31 01:25:22;;;;;;;9.03;8.13;;;13.60;99.00;;;;;;5069338;28;20850;-69
2022/05/31 01:28:06;;;;;;;9.50;8.57;;;13.60;98.70;;;;;;5053777;28;20422;-69
2022/05/31 01:30:37;;;;;;;9.27;8.40;;;13.60;98.50;;;;;;5053018;28;20429;-69
2022/05/31 01:33:33;;;;;;;9.57;8.70;;;13.60;98.50;;;;;;5053415;28;20493;-69
2022/05/31 01:36:06;;;;;;;9.10;8.40;;;13.60;98.40;;;;;;5053414;28;20440;-69
2022/05/31 01:38:40;;;;;;;9.07;8.27;;;13.60;98.20;;;;;;5053595;28;20447;-69
2022/05/31 01:41:31;;;;;;;8.60;7.83;;;13.50;98.20;;;;;;5055131;28;20387;-69
2022/05/31 01:44:00;;;;;;;9.70;8.70;;;13.50;98.20;;;;;;5054720;28;20404;-69
2022/05/31 01:46:31;;;;;;;9.37;8.20;;;13.50;98.30;;;;;;5051896;28;20427;-69
2022/05/31 01:48:58;;;;;;;9.83;9.00;;;13.50;98.50;;;;;;5053169;28;20465;-69
2022/05/31 01:51:24;;;;;;;9.03;8.27;;;13.50;98.60;;;;;;5051626;28;20435;-69
2022/05/31 01:53:52;;;;;;;9.50;8.70;;;13.50;98.50;;;;;;5054640;28;20476;-69
2022/05/31 01:56:18;;;;;;;9.27;8.13;;;13.50;98.60;;;;;;5053367;28;20173;-69
2022/05/31 01:58:47;;;;;;;10.83;8.63;;;13.50;99.00;;;;;;5053091;28;20462;-69
2022/05/31 02:01:13;;;;;;;9.53;8.73;;;13.50;98.90;;;;;;5052800;28;20189;-75
2022/05/31 02:03:41;;;;;;;8.80;8.13;;;13.50;98.90;;;;;;5054060;28;20402;-69
2022/05/31 02:06:22;;;;;;;8.87;8.17;;;13.40;98.90;;;;;;5052051;28;20427;-69
2022/05/31 02:08:48;;;;;;;9.07;8.37;;;13.50;98.70;;;;;;5054250;28;20401;-69
2022/05/31 02:11:14;;;;;;;8.00;7.27;;;13.50;98.80;;;;;;5052058;28;20925;-75
2022/05/31 02:13:39;;;;;;;8.70;8.00;;;13.50;99.90;;;;;;5052702;28;20389;-69
2022/05/31 02:16:05;;;;;;;8.50;7.83;;;13.40;99.80;;;;;;5054366;28;20173;-69
2022/05/31 02:21:15;;;;;;;9.60;8.70;;;13.40;99.90;;;;;;5053225;28;20259;-75
2022/05/31 02:23:41;;;;;;;9.53;8.67;;;13.40;99.90;;;;;;5053605;28;20456;-70
2022/05/31 02:26:06;;;;;;;9.40;8.60;;;13.40;99.90;;;;;;5052676;28;20238;-69
2022/05/31 02:28:33;;;;;;;9.00;8.17;;;13.50;99.90;;;;;;5052692;28;20210;-69
2022/05/31 02:30:58;;;;;;;8.97;8.27;;;13.40;99.70;;;;;;5052698;28;20213;-69
2022/05/31 02:33:24;;;;;;;9.40;8.70;;;13.50;99.50;;;;;;5052701;28;20909;-69
2022/05/31 02:35:49;;;;;;;8.93;8.03;;;13.50;99.30;;;;;;5051486;28;20191;-69
2022/05/31 02:38:15;;;;;;;8.83;7.93;;;13.50;99.20;;;;;;5051104;28;20252;-76
2022/05/31 02:40:41;;;;;;;9.07;8.30;;;13.50;99.30;;;;;;5052308;28;20195;-69
2022/05/31 02:43:07;;;;;;;9.70;8.90;;;13.50;99.30;;;;;;5053371;28;20226;-69
2022/05/31 02:45:33;;;;;;;9.07;8.37;;;13.50;99.30;;;;;;5052318;28;20336;-72
2022/05/31 02:47:59;;;;;;;8.23;7.63;;;13.50;99.30;;;;;;5052757;28;20545;-69
2022/05/31 02:50:26;;;;;;;9.27;8.37;;;13.50;99.10;;;;;;5050314;28;20189;-69
2022/05/31 02:52:52;;;;;;;8.40;7.73;;;13.50;99.20;;;;;;5053595;28;20229;-69
2022/05/31 02:55:18;;;;;;;8.47;7.70;;;13.50;99.30;;;;;;5051736;28;20432;-74
2022/05/31 02:57:43;;;;;;;8.50;7.70;;;13.50;99.20;;;;;;5052922;28;20438;-69
2022/05/31 03:00:10;;;;;;;9.43;8.70;;;13.50;99.00;;;;;;5051620;28;20200;-69
2022/05/31 03:02:37;;;;;;;9.47;8.47;;;13.50;99.40;;;;;;5052116;28;20801;-69
2022/05/31 03:05:03;;;;;;;8.87;8.07;;;13.50;98.80;;;;;;5051691;28;20517;-69
2022/05/31 03:07:29;;;;;;;8.87;8.17;;;13.50;98.70;;;;;;5050835;28;20517;-69
2022/05/31 03:09:55;;;;;;;8.83;8.00;;;13.40;98.50;;;;;;5053012;28;20448;-69
2022/05/31 03:12:22;;;;;;;9.60;8.60;;;13.40;98.60;;;;;;5052132;28;20181;-69
2022/05/31 03:15:07;;;;;;;9.37;8.50;;;13.40;98.80;;;;;;5051835;28;20194;-69
2022/05/31 03:17:48;;;;;;;9.60;8.90;;;13.40;98.70;;;;;;5051086;28;20507;-69
2022/05/31 03:20:27;;;;;;;9.87;9.00;;;13.50;98.80;;;;;;5051885;28;20433;-68
2022/05/31 03:23:01;;;;;;;9.93;9.13;;;13.50;98.70;;;;;;5053254;28;20502;-69
2022/05/31 03:25:27;;;;;;;9.80;9.00;;;13.50;98.80;;;;;;5049270;28;20540;-69
2022/05/31 03:27:58;;;;;;;9.97;9.07;;;13.50;98.70;;;;;;5052321;28;20449;-69
2022/05/31 03:30:24;;;;;;;9.90;8.90;;;13.50;98.40;;;;;;5051073;28;20443;-69
2022/05/31 03:32:51;;;;;;;9.83;8.93;;;13.40;98.20;;;;;;5052383;28;20423;-69
2022/05/31 03:35:17;;;;;;;9.80;8.80;;;13.40;98.40;;;;;;5050780;28;20505;-75
2022/05/31 03:37:43;;;;;;;10.63;9.77;;;13.40;98.20;;;;;;5051984;28;20504;-69
2022/05/31 03:40:10;;;;;;;10.77;9.70;;;13.40;98.10;;;;;;5033789;28;20469;-69
2022/05/31 03:42:35;;;;;;;12.60;11.47;;;13.40;98.30;;;;;;5051497;28;20183;-69
2022/05/31 03:45:01;;;;;;;10.60;9.60;;;13.40;98.70;;;;;;5051078;28;20419;-70
2022/05/31 03:47:27;;;;;;;10.10;9.20;;;13.40;98.40;;;;;;5051380;28;20223;-69
2022/05/31 03:49:52;;;;;;;8.93;8.23;;;13.40;98.40;;;;;;5051121;28;20184;-69
2022/05/31 03:52:18;;;;;;;10.87;10.00;;;13.50;98.30;;;;;;5051448;28;20279;-75
2022/05/31 03:54:44;;;;;;;10.27;9.27;;;13.50;98.10;;;;;;5051887;28;20176;-69
2022/05/31 03:57:18;;;;;;;10.20;9.40;;;13.50;98.20;;;;;;5050094;28;20194;-73
2022/05/31 03:59:45;;;;;;;9.30;8.40;;;13.50;98.10;;;;;;5031889;28;20455;-69
2022/05/31 04:02:10;;;;;;;8.87;7.97;;;13.60;98.10;;;;;;5048209;28;20478;-68
2022/05/31 04:04:36;;;;;;;15.80;9.97;;;13.50;97.80;;;;;;5050329;28;20911;-70
2022/05/31 04:07:03;;;;;;;12.03;11.20;;;13.50;98.00;;;;;;5051740;28;20178;-70
2022/05/31 04:09:29;;;;;;;9.60;8.60;;;13.50;98.00;;;;;;5050393;28;20789;-70
2022/05/31 04:11:57;;;;;;;9.70;8.80;;;13.50;97.80;;;;;;5051571;28;20423;-72
2022/05/31 04:14:23;;;;;;;10.33;9.43;;;13.50;97.60;;;;;;5049858;28;20419;-70
2022/05/31 04:16:49;;;;;;;9.10;8.40;;;13.50;97.60;;;;;;5051669;28;20505;-69
2022/05/31 04:19:15;;;;;;;11.30;10.40;;;13.40;98.30;;;;;;5052219;28;21020;-69
2022/05/31 04:21:40;;;;;;;9.67;8.47;;;13.50;98.40;;;;;;5049472;28;20551;-70
2022/05/31 04:24:11;;;;;;;8.83;8.07;;;13.60;98.80;;;;;;5051669;28;20542;-70
2022/05/31 04:26:45;;;;;;;10.33;9.43;;;13.60;98.90;;;;;;5051170;28;20419;-70
2022/05/31 04:29:11;;;;;;;10.13;9.13;;;13.60;99.00;;;;;;5051479;28;20417;-74
2022/05/31 04:31:37;;;;;;;11.10;9.60;;;13.60;98.60;;;;;;5050877;28;20425;-69
2022/05/31 04:34:04;;;;;;;11.37;10.47;;;13.60;98.40;;;;;;5050443;28;20420;-70
2022/05/31 04:36:30;;;;;;;9.73;8.80;;;13.60;98.60;;;;;;5050183;28;20196;-70
2022/05/31 04:38:56;;;;;;;10.47;9.67;;;13.60;98.60;;;;;;5051866;28;20454;-70
2022/05/31 04:41:25;;;;;;;9.37;8.47;;;13.50;97.80;;;;;;5050262;28;20441;-76
2022/05/31 04:43:59;;;;;;;8.87;8.07;;;13.50;97.90;;;;;;5050478;28;20622;-69
2022/05/31 04:46:28;;;;;;;9.53;8.73;;;13.60;98.00;;;;;;5049574;28;20439;-72
2022/05/31 04:48:55;;;;;;;12.37;7.70;;;13.60;98.30;;;;;;5051908;28;20446;-70
2022/05/31 04:51:22;;;;;;;7.50;6.80;;;13.70;98.60;;;;;;5049559;28;20486;-76
2022/05/31 04:53:48;;;;;;;9.30;8.40;;;13.70;98.60;;;;;;5052720;28;20419;-69
2022/05/31 04:56:20;;;;;;;8.47;7.67;;;13.70;98.70;;;;;;5054567;28;20828;-67
2022/05/31 04:58:46;;;;;;;9.00;7.10;;;13.80;98.70;;;;;;5053388;28;20988;-70
2022/05/31 05:01:12;;;;;;;12.83;11.67;;;13.90;99.40;;;;;;5055431;28;20423;-70
2022/05/31 05:03:41;;;;;;;10.83;9.87;;;14.20;99.50;;;;;;5054673;28;20427;-70
2022/05/31 05:06:08;;;;;;;8.90;7.83;;;14.40;99.40;;;;;;5055348;28;20419;-70
2022/05/31 05:08:35;;;;;;;9.47;8.50;;;14.70;99.40;;;;;;5054520;28;20879;-70
2022/05/31 05:11:03;;;;;;;9.20;8.30;;;15.00;98.60;;;;;;5053347;28;20434;-70
2022/05/31 05:13:30;;;;;;;9.80;8.83;;;15.20;97.60;;;;;;5054102;28;20440;-71
2022/05/31 05:15:56;;;;;;;7.90;7.20;;;15.40;98.30;;;;;;5055277;28;20501;-70
2022/05/31 05:18:23;;;;;;;7.93;7.43;;;15.60;97.70;;;;;;5053935;28;20457;-75
2022/05/31 05:20:50;;;;;;;8.97;8.27;;;15.80;97.20;;;;;;5053991;28;21008;-70
2022/05/31 05:23:16;;;;;;;9.30;8.50;;;15.90;96.50;;;;;;5053070;28;20450;-69
2022/05/31 05:25:51;;;;;;;8.57;7.87;;;16.00;94.20;;;;;;5053502;28;20439;-68
2022/05/31 05:31:01;;;;;;;8.10;7.47;;;15.70;93.70;;;;;;5052444;28;20922;-68
2022/05/31 05:33:27;;;;;;;8.77;7.97;;;15.40;94.10;;;;;;5051723;28;20439;-71
2022/05/31 05:35:53;;;;;;;8.80;7.90;;;15.20;94.40;;;;;;5055157;28;20417;-68
2022/05/31 05:38:19;;;;;;;10.63;8.77;;;15.00;94.80;;;;;;5061482;28;20451;-68
2022/05/31 05:40:44;;;;;;;9.30;8.40;;;14.70;95.90;;;;;;5073952;28;20169;-68
2022/05/31 05:43:10;;;;;;;10.00;9.07;;;14.50;96.90;;;;;;5063656;28;20653;-68
2022/05/31 05:45:36;;;;;;;11.10;8.80;;;14.40;97.60;;;;;;5053940;28;20181;-68
2022/05/31 05:48:03;;;;;;;8.73;8.03;;;14.30;97.80;;;;;;5053260;28;20219;-68
2022/05/31 05:50:29;;;;;;;10.07;9.03;;;14.20;97.90;;;;;;5051108;28;20654;-69
2022/05/31 05:53:01;;;;;;;11.60;10.50;;;14.20;98.50;;;;;;5054553;28;20424;-68
2022/05/31 05:55:27;;;;;;;8.20;7.40;;;14.00;99.10;;;;;;5051877;28;20211;-74
2022/05/31 05:57:54;;;;;;;9.93;8.90;;;13.90;98.80;;;;;;5052688;28;20490;-68
2022/05/31 06:00:20;;;;;;;10.97;9.97;;;13.90;98.90;;;;;;5051358;28;20628;-69
2022/05/31 06:02:50;;;;;;;10.90;8.43;;;13.80;99.60;;;;;;5052286;28;20424;-70
2022/05/31 06:05:21;;;;;;;9.47;8.47;;;13.80;99.80;;;;;;5045269;28;20443;-69
2022/05/31 06:07:57;;;;;;;8.53;7.73;;;13.70;99.40;;;;;;5051705;28;20455;-70
2022/05/31 06:10:41;;;;;;;9.80;8.50;;;13.70;99.40;;;;;;5053055;28;20430;-71
2022/05/31 06:13:19;;;;;;;9.47;8.57;;;13.60;99.90;;;;;;5052191;28;20770;-70
2022/05/31 06:15:50;;;;;;;11.23;7.90;;;13.60;99.90;;;;;;5034050;28;20774;-71
2022/05/31 06:18:21;;;;;;;11.27;10.30;;;13.60;99.90;;;;;;5034398;28;20479;-70
2022/05/31 06:20:50;;;;;;;9.50;8.70;;;13.60;99.90;;;;;;5042003;28;20801;-70
2022/05/31 06:23:15;;;;;;;9.90;9.00;;;13.60;99.90;;;;;;5054241;28;20553;-70
2022/05/31 06:25:41;;;;;;;13.87;9.40;;;13.60;99.90;;;;;;5053657;28;20518;-70
2022/05/31 06:28:07;;;;;;;13.97;10.27;;;13.60;99.90;;;;;;5054065;28;20184;-70
2022/05/31 06:30:33;;;;;;;9.90;8.90;;;13.70;99.90;;;;;;5053652;28;20603;-70
2022/05/31 06:32:59;;;;;;;14.60;9.67;;;13.70;99.90;;;;;;5053968;28;20448;-70
2022/05/31 06:35:24;;;;;;;10.50;8.70;;;13.70;99.90;;;;;;5052835;28;20169;-70
2022/05/31 06:37:50;;;;;;;11.57;9.20;;;13.70;99.90;;;;;;5048737;28;20181;-70
2022/05/31 06:40:16;;;;;;;11.40;10.50;;;13.70;99.90;;;;;;5048941;28;20735;-71
2022/05/31 06:42:42;;;;;;;11.20;10.20;;;13.70;99.90;;;;;;5056460;28;20203;-69
2022/05/31 06:45:08;;;;;;;11.90;9.80;;;13.70;99.90;;;;;;5053746;28;20412;-68
2022/05/31 06:47:33;;;;;;;10.43;9.43;;;13.70;99.90;;;;;;5053267;28;20185;-68
2022/05/31 06:49:59;;;;;;;9.53;8.53;;;13.60;99.90;;;;;;5052099;28;20455;-71
2022/05/31 06:57:54;;;;;;;14.47;10.20;;;13.50;99.90;;;;;;5050173;28;20431;-68
2022/05/31 07:00:21;;;;;;;11.20;10.10;;;13.50;99.90;;;;;;5053546;28;20484;-68
2022/05/31 07:02:48;;;;;;;10.03;9.03;;;13.50;99.90;;;;;;5050412;28;20176;-69
2022/05/31 07:05:15;;;;;;;10.40;9.50;;;13.50;99.90;;;;;;5051547;28;20459;-68
2022/05/31 07:07:41;;;;;;;11.83;10.20;;;13.40;99.90;;;;;;5035794;28;20434;-70
2022/05/31 07:10:07;;;;;;;10.77;9.60;;;13.30;99.90;;;;;;5051942;28;20424;-68
2022/05/31 07:12:34;;;;;;;9.97;9.00;;;13.40;99.90;;;;;;5051661;28;20417;-68
2022/05/31 07:15:01;;;;;;;11.20;10.30;;;13.40;99.90;;;;;;5050248;28;20434;-68
2022/05/31 07:17:26;;;;;;;10.50;9.50;;;13.50;99.90;;;;;;5051742;28;20437;-68
2022/05/31 07:19:52;;;;;;;10.23;9.33;;;13.50;99.90;;;;;;5051064;28;20475;-68
2022/05/31 07:22:18;;;;;;;11.87;10.60;;;13.50;99.90;;;;;;5052595;28;20551;-68
2022/05/31 07:24:44;;;;;;;11.27;10.20;;;13.50;99.90;;;;;;5049292;28;20601;-68
2022/05/31 07:27:10;;;;;;;11.73;10.13;;;13.50;99.90;;;;;;5047102;28;20271;-68
2022/05/31 07:29:36;;;;;;;14.73;10.40;;;13.50;99.90;;;;;;5052116;28;20503;-68
2022/05/31 07:32:02;;;;;;;12.77;11.37;;;13.60;99.90;;;;;;5052943;28;20415;-68
2022/05/31 07:34:28;;;;;;;13.87;12.47;;;13.60;99.90;;;;;;5052937;28;20181;-68
2022/05/31 07:36:53;;;;;;;14.93;13.40;;;13.60;99.90;;;;;;5052614;28;20412;-68
2022/05/31 07:39:22;;;;;;;12.63;10.53;;;13.70;99.90;;;;;;5052824;28;20228;-68
2022/05/31 07:41:49;;;;;;;11.50;10.40;;;13.60;99.90;;;;;;5051837;28;20435;-68
2022/05/31 07:44:16;;;;;;;14.80;10.43;;;13.60;99.90;;;;;;5051677;28;20481;-68
2022/05/31 07:46:42;;;;;;;11.80;10.37;;;13.70;99.90;;;;;;5050603;28;20418;-68
2022/05/31 07:49:08;;;;;;;13.20;10.53;;;13.70;99.90;;;;;;5038980;28;20432;-68
2022/05/31 07:51:34;;;;;;;11.47;10.43;;;13.80;99.90;;;;;;5052098;28;20785;-68
2022/05/31 07:54:00;;;;;;;15.23;10.97;;;13.80;99.90;;;;;;5051170;28;20435;-68
2022/05/31 07:56:27;;;;;;;11.70;10.47;;;13.80;99.90;;;;;;5051608;28;20578;-68
2022/05/31 07:58:54;;;;;;;12.43;11.13;;;13.80;99.90;;;;;;5051776;28;20315;-68
2022/05/31 08:01:25;;;;;;;13.70;12.30;;;13.80;99.90;;;;;;5051405;28;20514;-68
2022/05/31 08:03:52;;;;;;;14.20;10.10;;;13.70;99.90;;;;;;5050513;28;21287;-68
2022/05/31 08:06:21;;;;;;;10.73;9.73;;;13.70;99.90;;;;;;5051338;28;20430;-68
2022/05/31 08:08:48;;;;;;;10.80;9.80;;;13.70;99.90;;;;;;5043402;28;20434;-68
2022/05/31 08:11:34;;;;;;;14.40;13.20;;;13.70;99.90;;;;;;5050561;28;20442;-68
2022/05/31 08:14:01;;;;;;;13.70;12.27;;;13.80;99.90;;;;;;5051501;28;20411;-68
2022/05/31 08:16:34;;;;;;;10.57;9.63;;;13.80;99.90;;;;;;5052152;28;20443;-68
2022/05/31 08:19:03;;;;;;;12.57;11.57;;;13.90;99.90;;;;;;5052123;28;20537;-68
2022/05/31 08:21:31;;;;;;;12.30;11.20;;;13.90;99.90;;;;;;5052049;28;20505;-68
2022/05/31 08:23:59;;;;;;;13.07;9.80;;;13.90;99.90;;;;;;5051780;28;20479;-68
2022/05/31 08:26:25;;;;;;;10.93;9.83;;;14.10;99.90;;;;;;5052577;28;20488;-68
2022/05/31 08:28:51;;;;;;;11.47;10.37;;;14.10;99.90;;;;;;5053153;28;20434;-68
2022/05/31 08:31:24;;;;;;;11.37;10.33;;;14.00;99.90;;;;;;5055090;28;20423;-68
2022/05/31 08:33:51;;;;;;;11.27;10.07;;;14.00;99.90;;;;;;5055797;28;20461;-68
2022/05/31 08:36:16;;;;;;;11.57;10.40;;;14.00;99.90;;;;;;5056611;28;20405;-68
2022/05/31 08:38:43;;;;;;;10.33;9.43;;;14.00;99.90;;;;;;5055318;28;20462;-68
2022/05/31 08:41:16;;;;;;;9.23;8.37;;;14.10;99.90;;;;;;5054934;28;20188;-68
2022/05/31 08:43:52;;;;;;;10.20;9.20;;;14.10;99.90;;;;;;5055582;28;20408;-68
2022/05/31 08:46:31;;;;;;;10.10;9.10;;;14.10;99.90;;;;;;5056221;28;20764;-68
2022/05/31 08:49:21;;;;;;;10.30;9.40;;;14.20;99.90;;;;;;5055104;28;20487;-68
2022/05/31 08:52:04;;;;;;;9.07;8.10;;;14.20;99.90;;;;;;5044695;28;20435;-68
2022/05/31 08:57:46;;;;;;;10.60;9.70;;;14.30;99.90;;;;;;5056384;28;20809;-68
2022/05/31 09:00:18;;;;;;;10.80;8.73;;;14.50;99.90;;;;;;5055636;28;20834;-68
2022/05/31 09:02:53;;;;;;;9.67;8.70;;;14.60;99.90;;;;;;5053826;28;20847;-68
2022/05/31 09:05:25;;;;;;;9.07;8.10;;;14.50;99.90;;;;;;5054556;28;20900;-68
2022/05/31 09:08:11;;;;;;;10.03;9.20;;;14.40;99.90;;;;;;5055083;28;20411;-68
2022/05/31 09:10:42;;;;;;;10.13;9.13;;;14.40;99.90;;;;;;5055086;28;20397;-68
2022/05/31 09:13:16;;;;;;;10.33;9.23;;;14.50;99.90;;;;;;5055421;28;20499;-68
2022/05/31 09:15:47;;;;;;;10.87;8.93;;;14.70;99.90;;;;;;5054962;28;20479;-68
2022/05/31 09:18:19;;;;;;;12.63;10.43;;;14.70;99.90;;;;;;5055662;28;20839;-68
2022/05/31 09:20:53;;;;;;;11.60;10.50;;;14.70;99.90;;;;;;5053404;28;20468;-68
2022/05/31 09:23:25;;;;;;;9.33;8.60;;;14.80;99.90;;;;;;5055469;28;20407;-68
2022/05/31 09:26:11;;;;;;;11.60;10.50;;;14.80;99.90;;;;;;5053595;28;20417;-68
2022/05/31 09:28:48;;;;;;;11.80;9.40;;;14.80;99.90;;;;;;5054379;28;20486;-76
2022/05/31 09:31:42;;;;;;;9.60;8.60;;;14.90;99.90;;;;;;5055076;28;20764;-68
2022/05/31 09:34:27;;;;;;;9.67;8.60;;;14.90;99.90;;;;;;5054142;28;20400;-68
2022/05/31 09:37:05;;;;;;;9.97;8.70;;;14.90;99.90;;;;;;5054315;28;20417;-68
2022/05/31 09:39:52;;;;;;;10.43;9.53;;;14.90;99.90;;;;;;5053495;28;20483;-68
2022/05/31 09:42:24;;;;;;;10.60;9.27;;;14.80;99.90;;;;;;5055291;28;20434;-68
2022/05/31 09:45:11;;;;;;;10.83;9.67;;;14.80;99.90;;;;;;5054464;28;20412;-68
2022/05/31 09:47:37;;;;;;;11.70;9.97;;;14.80;99.90;;;;;;5054681;28;20458;-68
2022/05/31 09:50:03;;;;;;;10.03;9.13;;;14.80;99.90;;;;;;5054952;28;20481;-68
2022/05/31 09:52:43;;;;;;;11.20;10.30;;;14.80;99.90;;;;;;5054892;28;20416;-68
2022/05/31 09:58:18;;;;;;;12.87;11.67;;;14.70;99.90;;;;;;5052887;28;20817;-68
2022/05/31 10:01:12;;;;;;;10.80;9.67;;;14.60;99.90;;;;;;5053015;28;20424;-68
2022/05/31 10:03:39;;;;;;;11.57;10.37;;;14.30;99.90;;;;;;5053594;28;20427;-68
2022/05/31 10:06:23;;;;;;;10.10;9.00;;;13.90;99.90;;;;;;5053411;28;20805;-68
2022/05/31 10:08:54;;;;;;;13.20;11.77;;;14.00;99.90;;;;;;5054094;28;20420;-68
2022/05/31 10:11:29;;;;;;;13.13;10.70;;;14.10;99.90;;;;;;5054779;28;20412;-68
2022/05/31 10:14:04;;;;;;;10.47;9.43;;;14.10;99.90;;;;;;5054226;28;20504;-68
2022/05/31 10:16:35;;;;;;;12.83;11.53;;;13.90;99.90;;;;;;5054532;28;20404;-68
2022/05/31 10:19:10;;;;;;;12.83;11.53;;;14.00;99.90;;;;;;5053924;28;20806;-68
2022/05/31 10:21:40;;;;;;;12.10;10.80;;;14.10;99.90;;;;;;5054033;28;20473;-68
2022/05/31 10:24:16;;;;;;;11.90;10.10;;;14.20;99.90;;;;;;5054474;28;20520;-68
2022/05/31 10:26:43;;;;;;;16.67;12.37;;;14.20;99.90;;;;;;5054007;28;20402;-70
2022/05/31 10:29:20;;;;;;;15.20;11.40;;;14.30;99.90;;;;;;5052923;28;20977;-68
2022/05/31 10:31:47;;;;;;;13.30;11.87;;;14.30;99.90;;;;;;5053660;28;20416;-68
2022/05/31 10:34:40;;;;;;;12.83;11.53;;;14.40;99.90;;;;;;5053843;28;20484;-68
2022/05/31 10:37:22;;;;;;;14.27;12.97;;;14.30;99.90;;;;;;5053726;28;20406;-68
2022/05/31 10:40:00;;;;;;;12.23;11.00;;;14.40;99.90;;;;;;5052489;28;20549;-68
2022/05/31 10:42:27;;;;;;;14.43;12.93;;;14.40;99.90;;;;;;5053763;28;20401;-68
2022/05/31 10:44:56;;;;;;;12.67;11.07;;;14.40;99.90;;;;;;5053167;28;20430;-68
2022/05/31 10:47:24;;;;;;;11.53;10.33;;;14.50;99.90;;;;;;5053476;28;20409;-68
2022/05/31 10:49:50;;;;;;;14.87;10.63;;;14.60;99.90;;;;;;5052549;28;20428;-68
2022/05/31 10:53:05;;;;;;;12.97;11.67;;;14.70;99.90;;;;;;5052601;28;20404;-68
2022/05/31 10:55:58;;;;;;;9.73;8.73;;;14.80;99.90;;;;;;5053557;28;20889;-68
2022/05/31 10:58:54;;;;;;;11.43;9.93;;;14.90;99.90;;;;;;5053378;28;20856;-68
2022/05/31 11:01:39;;;;;;;9.97;8.97;;;14.90;99.90;;;;;;5053633;28;20481;-68
2022/05/31 11:04:27;;;;;;;9.87;9.13;;;15.00;99.90;;;;;;5053001;28;20429;-68
2022/05/31 11:07:24;;;;;;;8.93;8.13;;;15.00;99.90;;;;;;5052883;28;20410;-68
2022/05/31 11:13:38;;;;;;;8.40;7.60;;;15.30;99.90;;;;;;5053102;28;20490;-68
2022/05/31 11:16:14;;;;;;;9.87;7.93;;;15.50;99.90;;;;;;5052780;28;20403;-68
2022/05/31 11:18:45;;;;;;;7.57;6.97;;;15.70;99.90;;;;;;5052887;28;20471;-68
2022/05/31 11:21:52;;;;;;;8.40;7.70;;;15.70;99.90;;;;;;5053088;28;20812;-68
2022/05/31 11:24:33;;;;;;;8.27;7.53;;;15.90;99.90;;;;;;5051912;28;20450;-68
2022/05/31 11:27:18;;;;;;;7.73;7.13;;;16.00;99.90;;;;;;5052690;28;20447;-68
2022/05/31 11:29:57;;;;;;;8.60;7.93;;;16.30;99.90;;;;;;5052400;28;20848;-72
2022/05/31 11:32:38;;;;;;;8.23;7.53;;;16.60;99.90;;;;;;5053210;28;20823;-68
2022/05/31 11:35:15;;;;;;;8.33;7.63;;;16.90;99.90;;;;;;5052464;28;21007;-68
2022/05/31 11:37:41;;;;;;;7.73;6.60;;;17.30;99.90;;;;;;5053056;28;20408;-68
2022/05/31 11:40:33;;;;;;;7.93;7.03;;;17.60;99.90;;;;;;5052119;28;20440;-69
2022/05/31 11:43:17;;;;;;;6.93;6.33;;;18.00;99.90;;;;;;5052310;28;20224;-68
2022/05/31 11:45:57;;;;;;;9.60;8.70;;;18.00;98.10;;;;;;5052804;28;20448;-68
2022/05/31 11:48:35;;;;;;;5.90;5.40;;;18.10;98.10;;;;;;5052909;28;20986;-69
2022/05/31 11:51:39;;;;;;;8.40;7.70;;;18.20;98.10;;;;;;5050948;28;20428;-68
2022/05/31 11:54:14;;;;;;;8.53;8.03;;;18.10;94.70;;;;;;5052154;28;20397;-68
2022/05/31 11:56:50;;;;;;;6.53;6.03;;;18.20;96.00;;;;;;5052855;28;20404;-68
2022/05/31 11:59:20;;;;;;;6.50;6.00;;;18.00;95.00;;;;;;5052249;28;20947;-68
2022/05/31 12:02:03;;;;;;;9.43;8.70;;;17.90;95.00;;;;;;5051762;28;20480;-73
2022/05/31 12:04:44;;;;;;;6.57;5.97;;;17.80;95.80;;;;;;5052610;28;20496;-68
2022/05/31 12:07:15;;;;;;;10.67;9.67;;;18.00;97.00;;;;;;5051407;28;20412;-68
2022/05/31 12:09:56;;;;;;;8.00;7.40;;;18.20;98.80;;;;;;5050759;28;20920;-68
2022/05/31 12:12:34;;;;;;;7.83;7.20;;;18.10;97.40;;;;;;5052873;28;20400;-68
2022/05/31 12:15:30;;;;;;;8.00;7.50;;;18.10;97.00;;;;;;5050766;28;20396;-69
2022/05/31 12:18:08;;;;;;;7.63;7.00;;;18.30;97.40;;;;;;5042069;28;20923;-68
2022/05/31 12:20:55;;;;;;;7.80;7.20;;;18.40;97.40;;;;;;5052278;28;20460;-68
2022/05/31 12:23:47;;;;;;;8.20;7.60;;;18.60;98.20;;;;;;5052402;28;20463;-69
2022/05/31 12:26:32;;;;;;;8.63;7.90;;;18.70;97.50;;;;;;5051284;28;20439;-68
2022/05/31 12:29:04;;;;;;;11.57;9.50;;;18.80;95.70;;;;;;5051768;28;20774;-69
2022/05/31 12:31:32;;;;;;;7.33;6.83;;;18.80;94.90;;;;;;5052404;28;20851;-69
2022/05/31 12:34:18;;;;;;;7.50;6.90;;;18.80;95.40;;;;;;5051684;28;20495;-68
2022/05/31 12:36:58;;;;;;;10.57;9.80;;;18.80;95.70;;;;;;5052299;28;20499;-69
2022/05/31 12:39:30;;;;;;;8.27;7.70;;;18.80;95.60;;;;;;5051785;28;20456;-68
2022/05/31 12:41:56;;;;;;;6.80;6.30;;;18.70;96.10;;;;;;5051659;28;20736;-68
2022/05/31 12:44:27;;;;;;;5.80;5.40;;;18.80;95.40;;;;;;5052132;28;20446;-68
2022/05/31 12:46:53;;;;;;;8.67;7.97;;;18.90;98.20;;;;;;5051875;28;20439;-69
2022/05/31 12:49:29;;;;;;;7.30;6.40;;;19.10;97.40;;;;;;5052526;28;20442;-69
2022/05/31 12:54:56;;;;;;;8.83;6.03;;;19.40;95.20;;;;;;5051313;28;20451;-69
2022/05/31 12:58:26;;;;;;;6.80;6.20;;;19.50;94.00;;;;;;5052014;28;20516;-68
2022/05/31 13:00:34;;;;;;;6.47;5.87;;;19.40;91.90;;;;;;5051666;28;20762;-68
2022/05/31 13:03:24;;;;;;;7.23;5.40;;;19.20;91.50;;;;;;5050820;28;20422;-69
2022/05/31 13:06:04;;;;;;;5.60;5.10;;;19.20;91.30;;;;;;5051497;28;20754;-71
2022/05/31 13:08:48;;;;;;;6.70;6.10;;;18.90;88.00;;;;;;5048763;28;20444;-68
2022/05/31 13:20:20;;;;;;;6.27;5.77;;;19.50;91.40;;;;;;5069328;28;20625;-69
2022/05/31 13:23:17;;;;;;;6.10;5.70;;;19.60;92.10;;;;;;5053786;28;20432;-71
2022/05/31 13:26:04;;;;;;;6.00;5.60;;;19.60;90.00;;;;;;5037914;28;20445;-68
2022/05/31 13:28:57;;;;;;;5.70;5.30;;;19.80;87.80;;;;;;5046346;28;20452;-71
2022/05/31 13:31:25;;;;;;;7.40;7.10;;;19.90;89.60;;;;;;5046030;28;20437;-68
2022/05/31 13:33:59;;;;;;;5.10;4.80;;;20.10;91.40;;;;;;5054333;28;20439;-73
2022/05/31 13:36:28;;;;;;;5.40;5.00;;;20.30;86.70;;;;;;5043076;28;20523;-67